Time;durP1;ratioP1;P1;durP2;ratioP2;P2;SDS_P1;SDS_P2;PMS_P1;PMS_P2;Temp;Humidity;BMP_temperature;BMP_pressure;BME280_temperature;BME280_humidity;BME280_pressure;Samples;Min_cycle;Max_cycle;Signal;HPM_P1;HPM_P2
2023/06/06 00:00:37;;;;;;;6.60;2.80;;;18.40;1.00;;;;;;4964220;28;20533;-83
2023/06/06 00:03:04;;;;;;;3.37;2.77;;;18.40;1.00;;;;;;4962453;28;20589;-83
2023/06/06 00:05:33;;;;;;;3.27;2.40;;;18.40;1.00;;;;;;4971863;28;20537;-81
2023/06/06 00:08:01;;;;;;;4.63;2.87;;;18.30;1.00;;;;;;4966510;28;20438;-82
2023/06/06 00:10:28;;;;;;;3.23;2.67;;;18.30;1.00;;;;;;4964930;28;21165;-81
2023/06/06 00:12:55;;;;;;;2.90;2.60;;;18.30;1.00;;;;;;4964859;28;20473;-82
2023/06/06 00:15:24;;;;;;;3.57;2.70;;;18.30;1.00;;;;;;4962281;28;21115;-83
2023/06/06 00:17:55;;;;;;;3.50;3.20;;;18.30;1.00;;;;;;4964450;28;20474;-82
2023/06/06 00:20:22;;;;;;;2.70;2.33;;;18.20;1.00;;;;;;4969066;28;20535;-80
2023/06/06 00:22:53;;;;;;;3.00;2.80;;;18.30;1.00;;;;;;4965555;28;20484;-82
2023/06/06 00:25:22;;;;;;;2.77;2.57;;;18.20;1.00;;;;;;4964313;28;20571;-83
2023/06/06 00:27:49;;;;;;;4.10;2.90;;;18.20;1.00;;;;;;4967150;28;20502;-83
2023/06/06 00:30:16;;;;;;;2.83;2.27;;;18.20;1.00;;;;;;4966312;28;20435;-82
2023/06/06 00:32:43;;;;;;;3.90;2.53;;;18.20;1.00;;;;;;4962361;28;20475;-81
2023/06/06 00:35:11;;;;;;;5.20;2.87;;;18.10;1.00;;;;;;4964257;28;20517;-83
2023/06/06 00:37:38;;;;;;;6.47;2.77;;;18.10;1.00;;;;;;4963434;28;20498;-82
2023/06/06 00:40:09;;;;;;;3.80;2.87;;;18.10;1.00;;;;;;4962820;28;20460;-82
2023/06/06 00:42:36;;;;;;;2.90;2.63;;;18.10;1.00;;;;;;4966023;28;20478;-82
2023/06/06 00:45:03;;;;;;;4.53;2.33;;;18.20;1.00;;;;;;4967511;28;20883;-82
2023/06/06 00:47:30;;;;;;;2.97;2.77;;;18.10;1.00;;;;;;4966222;28;20444;-83
2023/06/06 00:50:01;;;;;;;2.97;2.00;;;18.10;1.00;;;;;;4966654;28;20466;-83
2023/06/06 00:52:28;;;;;;;3.37;3.07;;;18.10;1.00;;;;;;4962746;28;20480;-83
2023/06/06 00:54:56;;;;;;;5.00;3.10;;;18.10;1.00;;;;;;4960706;28;20494;-83
2023/06/06 00:57:26;;;;;;;3.20;2.90;;;18.10;1.00;;;;;;4962562;28;20479;-84
2023/06/06 00:59:54;;;;;;;3.07;2.53;;;18.10;1.00;;;;;;4962892;28;20467;-83
2023/06/06 01:02:24;;;;;;;4.23;2.90;;;18.10;1.00;;;;;;4975800;23;20478;-75
2023/06/06 01:04:51;;;;;;;5.07;2.90;;;18.10;1.00;;;;;;4964285;28;20572;-75
2023/06/06 01:07:18;;;;;;;4.07;2.40;;;18.10;1.00;;;;;;4957724;28;20465;-75
2023/06/06 01:09:46;;;;;;;5.57;3.20;;;18.10;1.00;;;;;;4950102;28;20466;-75
2023/06/06 01:12:21;;;;;;;5.20;3.07;;;18.10;1.00;;;;;;4947678;28;20488;-73
2023/06/06 01:14:57;;;;;;;2.80;2.60;;;18.10;1.00;;;;;;4953145;28;20490;-74
2023/06/06 01:17:27;;;;;;;3.23;2.93;;;18.10;1.00;;;;;;4948334;28;20492;-75
2023/06/06 01:19:56;;;;;;;3.53;2.40;;;18.10;1.00;;;;;;4960847;28;20528;-75
2023/06/06 01:22:27;;;;;;;5.07;3.37;;;18.10;1.00;;;;;;4956375;28;20478;-75
2023/06/06 01:24:55;;;;;;;3.27;2.83;;;18.10;1.00;;;;;;4960828;28;20456;-76
2023/06/06 01:27:22;;;;;;;5.10;3.17;;;18.10;1.00;;;;;;4959490;28;20571;-75
2023/06/06 01:29:50;;;;;;;4.17;2.63;;;18.10;1.00;;;;;;4961318;28;20513;-75
2023/06/06 01:32:22;;;;;;;5.30;3.50;;;18.10;1.00;;;;;;4959857;28;20482;-75
2023/06/06 01:34:55;;;;;;;5.00;2.90;;;18.10;1.00;;;;;;4965226;28;20541;-75
2023/06/06 01:37:33;;;;;;;4.70;2.23;;;18.00;1.00;;;;;;4959759;28;20484;-75
2023/06/06 01:40:04;;;;;;;3.93;2.70;;;18.00;1.00;;;;;;4954218;28;22292;-75
2023/06/06 01:42:32;;;;;;;3.10;2.80;;;18.00;1.00;;;;;;4956482;28;22198;-76
2023/06/06 01:45:00;;;;;;;3.17;2.87;;;18.00;1.00;;;;;;4954820;28;20480;-75
2023/06/06 01:47:28;;;;;;;4.07;2.97;;;17.90;1.00;;;;;;4957247;28;20563;-75
2023/06/06 01:49:56;;;;;;;5.27;2.67;;;17.90;1.00;;;;;;4964021;28;20548;-75
2023/06/06 01:52:28;;;;;;;4.67;3.50;;;17.80;1.00;;;;;;4952184;28;21444;-75
2023/06/06 01:54:55;;;;;;;4.90;3.00;;;17.80;1.00;;;;;;4956713;28;20991;-76
2023/06/06 01:57:23;;;;;;;3.77;3.10;;;17.80;1.00;;;;;;4955346;28;21284;-75
2023/06/06 01:59:50;;;;;;;4.50;2.97;;;17.80;1.00;;;;;;4957298;28;20543;-75
2023/06/06 02:02:17;;;;;;;4.10;3.53;;;17.80;1.00;;;;;;4956573;28;20980;-75
2023/06/06 02:04:44;;;;;;;3.13;2.50;;;17.80;1.00;;;;;;4957852;28;20674;-75
2023/06/06 02:07:12;;;;;;;4.40;3.60;;;17.80;1.00;;;;;;4953225;28;20479;-74
2023/06/06 02:09:42;;;;;;;4.33;2.73;;;17.80;1.00;;;;;;4953224;28;21097;-74
2023/06/06 02:12:10;;;;;;;4.50;3.03;;;17.80;1.00;;;;;;4960239;28;20465;-74
2023/06/06 02:14:37;;;;;;;6.50;3.50;;;17.80;1.00;;;;;;4952552;28;22230;-74
2023/06/06 02:17:05;;;;;;;5.00;3.70;;;17.80;1.00;;;;;;4958485;28;21004;-74
2023/06/06 02:19:32;;;;;;;3.20;2.87;;;17.80;1.00;;;;;;4962036;28;20535;-73
2023/06/06 02:21:59;;;;;;;2.93;2.73;;;17.80;1.00;;;;;;4959713;28;21749;-73
2023/06/06 02:24:27;;;;;;;5.10;3.30;;;17.80;1.00;;;;;;4961491;28;20552;-73
2023/06/06 02:26:56;;;;;;;3.50;3.20;;;17.80;1.00;;;;;;4960967;28;20465;-72
2023/06/06 02:29:24;;;;;;;6.30;3.10;;;17.70;1.00;;;;;;4956876;28;20578;-72
2023/06/06 02:31:51;;;;;;;3.27;2.97;;;17.70;1.00;;;;;;4956663;28;20477;-71
2023/06/06 02:34:18;;;;;;;4.00;2.90;;;17.70;1.00;;;;;;4958704;28;20554;-72
2023/06/06 02:36:49;;;;;;;3.83;3.30;;;17.70;1.00;;;;;;4965655;28;20474;-73
2023/06/06 02:39:16;;;;;;;3.40;3.10;;;17.70;1.00;;;;;;4957661;28;20933;-73
2023/06/06 02:41:43;;;;;;;5.10;3.43;;;17.60;1.00;;;;;;4958904;28;20468;-72
2023/06/06 02:44:11;;;;;;;4.00;3.27;;;17.60;1.00;;;;;;4960683;28;20541;-72
2023/06/06 02:46:38;;;;;;;3.97;3.10;;;17.60;1.00;;;;;;4956539;28;20465;-73
2023/06/06 02:49:05;;;;;;;6.73;3.53;;;17.60;1.00;;;;;;4961632;28;20476;-72
2023/06/06 02:51:32;;;;;;;7.00;4.47;;;17.60;1.00;;;;;;4954854;28;20478;-72
2023/06/06 02:53:59;;;;;;;4.83;3.50;;;17.60;1.00;;;;;;4958878;28;20471;-73
2023/06/06 02:56:26;;;;;;;4.40;3.47;;;17.60;1.00;;;;;;4957542;28;20472;-73
2023/06/06 02:58:53;;;;;;;6.87;3.07;;;17.60;1.00;;;;;;4959197;28;20469;-73
2023/06/06 03:01:22;;;;;;;3.40;3.10;;;17.60;1.00;;;;;;4962213;28;20568;-73
2023/06/06 03:03:49;;;;;;;4.40;3.20;;;17.50;1.00;;;;;;4961473;28;20465;-73
2023/06/06 03:06:16;;;;;;;9.37;4.00;;;17.50;1.00;;;;;;4963463;28;20484;-72
2023/06/06 03:08:44;;;;;;;5.73;3.00;;;17.50;1.00;;;;;;4958587;28;20469;-72
2023/06/06 03:11:12;;;;;;;5.73;3.50;;;17.50;1.00;;;;;;4956467;28;20662;-74
2023/06/06 03:13:39;;;;;;;3.93;3.20;;;17.50;1.00;;;;;;4956890;28;20574;-73
2023/06/06 03:16:06;;;;;;;6.43;4.10;;;17.50;1.00;;;;;;4946372;28;20473;-73
2023/06/06 03:18:36;;;;;;;7.33;3.67;;;17.50;1.00;;;;;;4959347;28;20481;-73
2023/06/06 03:21:03;;;;;;;4.10;3.70;;;17.40;1.00;;;;;;4956763;28;20979;-73
2023/06/06 03:23:30;;;;;;;4.83;3.40;;;17.40;1.00;;;;;;4961680;28;20460;-72
2023/06/06 03:25:57;;;;;;;5.80;3.87;;;17.40;1.00;;;;;;4965121;28;20963;-73
2023/06/06 03:28:24;;;;;;;6.93;3.90;;;17.40;1.00;;;;;;4954200;28;20468;-72
2023/06/06 03:30:51;;;;;;;4.30;3.90;;;17.40;1.00;;;;;;4952847;28;20735;-73
2023/06/06 03:33:18;;;;;;;4.50;3.30;;;17.40;1.00;;;;;;4972812;28;20464;-74
2023/06/06 03:35:46;;;;;;;10.83;4.90;;;17.40;1.00;;;;;;4956822;28;20457;-74
2023/06/06 03:38:14;;;;;;;5.90;3.80;;;17.30;1.00;;;;;;4950673;28;20452;-76
2023/06/06 03:40:41;;;;;;;5.53;3.83;;;17.30;1.00;;;;;;4955881;28;20491;-75
2023/06/06 03:43:08;;;;;;;9.07;4.30;;;17.30;1.00;;;;;;4956735;28;20514;-76
2023/06/06 03:45:35;;;;;;;21.90;7.50;;;17.30;1.00;;;;;;4954536;28;20487;-74
2023/06/06 03:48:02;;;;;;;4.97;4.00;;;17.20;1.00;;;;;;4959697;28;20599;-75
2023/06/06 03:50:29;;;;;;;13.17;4.70;;;17.20;1.00;;;;;;4964233;28;20493;-75
2023/06/06 03:52:58;;;;;;;4.37;3.60;;;17.20;1.00;;;;;;4960149;28;20465;-75
2023/06/06 03:55:25;;;;;;;14.63;5.30;;;17.20;1.00;;;;;;4966235;28;20476;-75
2023/06/06 03:57:52;;;;;;;7.73;3.53;;;17.20;1.00;;;;;;4962327;28;20505;-75
2023/06/06 04:00:20;;;;;;;15.43;4.77;;;17.20;1.00;;;;;;4959037;28;21143;-74
2023/06/06 04:02:48;;;;;;;6.17;4.70;;;17.20;1.00;;;;;;4954452;28;20468;-74
2023/06/06 04:05:16;;;;;;;6.93;4.60;;;17.20;1.00;;;;;;4951607;28;20483;-73
2023/06/06 04:07:43;;;;;;;8.60;4.70;;;17.10;1.00;;;;;;4963715;28;20464;-76
2023/06/06 04:10:12;;;;;;;4.97;3.90;;;17.10;1.00;;;;;;4962969;28;20900;-74
2023/06/06 04:12:39;;;;;;;7.83;4.30;;;17.10;1.00;;;;;;4946090;28;20449;-74
2023/06/06 04:15:09;;;;;;;9.20;4.97;;;17.10;1.00;;;;;;4955324;28;20472;-75
2023/06/06 04:17:36;;;;;;;10.17;5.40;;;17.10;1.00;;;;;;4955662;28;20457;-76
2023/06/06 04:20:05;;;;;;;7.63;5.87;;;17.20;1.00;;;;;;4954031;28;20575;-73
2023/06/06 04:22:32;;;;;;;8.60;4.93;;;17.20;1.00;;;;;;4955581;28;20914;-73
2023/06/06 04:24:59;;;;;;;13.60;6.07;;;17.20;1.00;;;;;;4954374;28;20562;-73
2023/06/06 04:27:28;;;;;;;15.33;4.80;;;17.30;1.00;;;;;;4954111;28;20564;-74
2023/06/06 04:29:57;;;;;;;9.33;4.63;;;17.30;1.00;;;;;;4957091;28;20476;-73
2023/06/06 04:32:25;;;;;;;5.90;4.77;;;17.30;1.00;;;;;;4951983;28;20476;-73
2023/06/06 04:34:57;;;;;;;9.10;6.17;;;17.30;1.00;;;;;;4959471;28;20462;-72
2023/06/06 04:37:24;;;;;;;5.03;4.23;;;17.40;1.00;;;;;;4955567;28;20447;-73
2023/06/06 04:39:52;;;;;;;6.53;4.60;;;17.40;1.00;;;;;;4954213;28;20673;-73
2023/06/06 04:42:21;;;;;;;4.50;4.10;;;17.40;1.00;;;;;;4951044;28;20991;-73
2023/06/06 04:44:49;;;;;;;9.97;5.00;;;17.50;1.00;;;;;;4950012;28;21067;-71
2023/06/06 04:47:19;;;;;;;5.57;5.00;;;17.50;1.00;;;;;;4954766;28;20877;-71
2023/06/06 04:49:47;;;;;;;8.60;4.57;;;17.60;1.00;;;;;;4958225;28;20481;-72
2023/06/06 04:52:15;;;;;;;10.67;5.60;;;17.70;1.00;;;;;;4958569;28;20481;-72
2023/06/06 04:54:43;;;;;;;11.00;5.23;;;17.80;1.00;;;;;;4959477;28;20471;-72
2023/06/06 04:57:15;;;;;;;12.83;5.50;;;17.90;1.00;;;;;;4960561;28;20472;-73
2023/06/06 04:59:44;;;;;;;7.13;4.20;;;17.90;1.00;;;;;;4958658;28;20467;-71
2023/06/06 05:02:12;;;;;;;12.63;4.60;;;18.00;1.00;;;;;;4951144;28;20542;-73
2023/06/06 05:04:41;;;;;;;11.20;4.80;;;18.10;1.00;;;;;;4959532;28;20548;-72
2023/06/06 05:07:09;;;;;;;7.80;4.43;;;18.20;1.00;;;;;;4948717;28;20473;-71
2023/06/06 05:09:36;;;;;;;8.97;4.83;;;18.30;1.00;;;;;;4953834;28;20472;-73
2023/06/06 05:12:05;;;;;;;13.47;5.13;;;18.40;1.00;;;;;;4956807;28;20477;-72
2023/06/06 05:14:32;;;;;;;8.50;5.07;;;18.40;1.00;;;;;;4962319;28;21066;-72
2023/06/06 05:16:59;;;;;;;12.67;5.30;;;18.50;1.00;;;;;;4961838;28;20519;-72
2023/06/06 05:19:27;;;;;;;10.03;5.47;;;18.60;1.00;;;;;;4958993;28;20505;-72
2023/06/06 05:21:54;;;;;;;9.00;5.90;;;18.80;1.00;;;;;;4956283;28;20457;-72
2023/06/06 05:24:21;;;;;;;10.13;5.40;;;18.90;1.00;;;;;;4956064;28;20520;-72
2023/06/06 05:26:51;;;;;;;10.90;5.97;;;19.00;1.00;;;;;;4956823;28;21000;-72
2023/06/06 05:29:18;;;;;;;10.00;5.10;;;18.90;1.00;;;;;;4948326;28;20767;-71
2023/06/06 05:31:45;;;;;;;11.73;6.80;;;19.10;1.00;;;;;;4957878;28;20911;-72
2023/06/06 05:34:12;;;;;;;7.07;4.50;;;19.20;1.00;;;;;;4955945;28;20532;-72
2023/06/06 05:36:42;;;;;;;11.67;5.70;;;19.30;1.00;;;;;;4961134;28;20996;-73
2023/06/06 05:39:10;;;;;;;5.80;5.00;;;19.50;1.00;;;;;;4958894;28;20509;-72
2023/06/06 05:41:37;;;;;;;6.50;4.47;;;19.60;1.00;;;;;;4947088;28;20601;-73
2023/06/06 05:44:05;;;;;;;5.97;4.10;;;19.70;1.00;;;;;;4959388;28;20499;-71
2023/06/06 05:46:35;;;;;;;18.83;6.20;;;19.80;1.00;;;;;;4965237;28;20451;-72
2023/06/06 05:49:02;;;;;;;7.77;4.07;;;19.90;1.00;;;;;;4962740;28;20475;-71
2023/06/06 05:51:31;;;;;;;5.23;4.10;;;20.00;1.00;;;;;;4962788;28;20614;-72
2023/06/06 05:54:00;;;;;;;69.67;32.50;;;19.90;1.00;;;;;;4960607;28;20837;-71
2023/06/06 05:56:27;;;;;;;9.90;5.47;;;20.10;1.00;;;;;;4962774;28;21152;-73
2023/06/06 05:58:54;;;;;;;6.17;4.67;;;20.30;1.00;;;;;;4967446;28;20537;-71
2023/06/06 06:01:24;;;;;;;3.50;3.20;;;20.40;1.00;;;;;;4965320;28;20994;-72
2023/06/06 06:03:54;;;;;;;8.93;5.10;;;20.50;1.00;;;;;;4955158;28;20475;-72
2023/06/06 06:06:21;;;;;;;8.77;4.40;;;20.60;1.00;;;;;;4961374;28;20586;-73
2023/06/06 06:08:50;;;;;;;5.00;4.07;;;20.60;1.00;;;;;;4963087;28;21254;-72
2023/06/06 06:11:19;;;;;;;6.40;5.77;;;20.60;1.00;;;;;;4960621;28;20463;-72
2023/06/06 06:13:46;;;;;;;8.90;3.33;;;20.60;1.00;;;;;;4954676;28;20452;-71
2023/06/06 06:16:13;;;;;;;6.53;3.83;;;20.60;1.00;;;;;;4959368;28;20475;-72
2023/06/06 06:18:40;;;;;;;6.50;4.37;;;20.70;1.00;;;;;;4967582;28;20555;-72
2023/06/06 06:21:07;;;;;;;6.73;3.77;;;20.80;1.00;;;;;;4963271;28;21044;-73
2023/06/06 06:23:34;;;;;;;5.87;4.37;;;21.00;1.00;;;;;;4958421;28;20462;-73
2023/06/06 06:26:01;;;;;;;6.57;3.17;;;21.10;1.00;;;;;;4963591;28;20467;-73
2023/06/06 06:28:31;;;;;;;8.43;4.07;;;21.20;1.00;;;;;;4964567;28;20484;-73
2023/06/06 06:30:58;;;;;;;5.60;3.80;;;21.20;1.00;;;;;;4963070;28;20456;-73
2023/06/06 06:33:25;;;;;;;5.83;5.17;;;21.20;1.00;;;;;;4964824;28;20967;-75
2023/06/06 06:35:52;;;;;;;4.70;3.50;;;21.20;1.00;;;;;;4964824;28;20468;-74
2023/06/06 06:38:19;;;;;;;4.23;3.83;;;21.20;1.00;;;;;;4962157;28;20560;-74
2023/06/06 06:40:46;;;;;;;7.63;4.20;;;21.30;1.00;;;;;;4964366;28;20549;-73
2023/06/06 06:43:14;;;;;;;5.77;3.63;;;21.20;1.00;;;;;;4963456;28;21317;-73
2023/06/06 06:45:43;;;;;;;6.97;4.03;;;21.20;1.00;;;;;;4971703;28;20453;-71
2023/06/06 06:48:10;;;;;;;7.67;4.20;;;21.40;1.00;;;;;;4968173;28;20497;-71
2023/06/06 06:50:37;;;;;;;6.70;5.00;;;21.60;1.00;;;;;;4962772;28;21545;-74
2023/06/06 06:53:04;;;;;;;7.77;5.17;;;21.90;1.00;;;;;;4964160;28;20927;-74
2023/06/06 06:55:31;;;;;;;6.97;4.67;;;22.20;1.00;;;;;;4967191;28;20518;-76
2023/06/06 06:57:58;;;;;;;30.47;7.60;;;22.30;1.00;;;;;;4960832;28;20491;-75
2023/06/06 07:00:25;;;;;;;5.83;4.30;;;22.30;1.00;;;;;;4963486;28;20469;-75
2023/06/06 07:02:56;;;;;;;7.37;4.83;;;22.50;1.00;;;;;;4964622;28;21053;-76
2023/06/06 07:05:23;;;;;;;7.00;3.83;;;22.70;1.00;;;;;;4955712;28;20965;-75
2023/06/06 07:07:52;;;;;;;5.40;4.10;;;22.80;1.00;;;;;;4962716;28;20492;-76
2023/06/06 07:10:20;;;;;;;7.63;4.23;;;22.90;1.00;;;;;;4961075;28;20466;-75
2023/06/06 07:12:48;;;;;;;6.57;3.80;;;23.10;1.00;;;;;;4969359;28;20551;-75
2023/06/06 07:15:15;;;;;;;5.73;3.73;;;23.20;1.00;;;;;;4960943;28;20461;-75
2023/06/06 07:17:46;;;;;;;6.43;3.57;;;23.20;1.00;;;;;;4966567;28;20476;-76
2023/06/06 07:20:14;;;;;;;6.40;4.40;;;23.30;1.00;;;;;;4967764;28;20678;-76
2023/06/06 07:22:42;;;;;;;8.23;4.40;;;23.30;1.00;;;;;;4960954;28;20803;-76
2023/06/06 07:25:09;;;;;;;8.10;4.40;;;23.40;1.00;;;;;;4961432;28;20910;-75
2023/06/06 07:27:38;;;;;;;5.97;4.13;;;23.60;1.00;;;;;;4966402;28;20987;-75
2023/06/06 07:30:12;;;;;;;7.00;4.70;;;23.60;1.00;;;;;;4965609;28;21602;-75
2023/06/06 07:32:41;;;;;;;13.50;4.30;;;23.80;1.00;;;;;;4968222;28;20491;-76
2023/06/06 07:35:09;;;;;;;7.77;4.47;;;23.90;1.00;;;;;;4960782;28;20481;-75
2023/06/06 07:37:38;;;;;;;11.27;5.77;;;24.00;1.00;;;;;;4963596;28;20864;-76
2023/06/06 07:40:07;;;;;;;5.80;4.90;;;24.20;1.00;;;;;;4959743;28;20591;-74
2023/06/06 07:42:34;;;;;;;5.13;4.47;;;24.30;1.00;;;;;;4957065;28;20473;-75
2023/06/06 07:45:01;;;;;;;6.70;4.20;;;24.50;1.00;;;;;;4965572;28;20488;-74
2023/06/06 07:47:28;;;;;;;4.53;4.10;;;24.70;1.00;;;;;;4964361;28;20563;-73
2023/06/06 07:49:55;;;;;;;5.43;4.90;;;24.70;1.00;;;;;;4969579;28;20545;-74
2023/06/06 07:52:22;;;;;;;7.10;5.20;;;24.70;1.00;;;;;;4964329;28;20487;-75
2023/06/06 07:54:51;;;;;;;6.20;5.57;;;24.60;1.00;;;;;;4961047;28;20876;-74
2023/06/06 07:57:19;;;;;;;7.23;4.67;;;24.60;1.00;;;;;;4964906;28;20604;-74
2023/06/06 07:59:46;;;;;;;6.53;4.73;;;24.70;1.00;;;;;;4964182;28;20544;-75
2023/06/06 08:02:14;;;;;;;5.77;4.93;;;24.70;1.00;;;;;;4963754;28;20586;-75
2023/06/06 08:04:45;;;;;;;7.53;5.60;;;24.80;1.00;;;;;;4962945;28;20468;-76
2023/06/06 08:07:13;;;;;;;5.93;4.70;;;24.90;1.00;;;;;;4960546;28;20477;-75
2023/06/06 08:09:40;;;;;;;8.20;5.43;;;24.90;1.00;;;;;;4961887;28;20483;-76
2023/06/06 08:12:10;;;;;;;10.17;7.17;;;24.80;1.00;;;;;;4963463;28;20468;-76
2023/06/06 08:14:37;;;;;;;8.87;5.67;;;24.80;1.00;;;;;;4964718;28;20448;-76
2023/06/06 08:17:05;;;;;;;5.43;4.40;;;24.80;1.00;;;;;;4963476;28;20620;-75
2023/06/06 08:19:33;;;;;;;5.17;4.40;;;24.90;1.00;;;;;;4963415;28;20464;-75
2023/06/06 08:22:02;;;;;;;8.10;5.73;;;25.10;1.00;;;;;;4961159;28;20984;-75
2023/06/06 08:24:29;;;;;;;9.07;4.97;;;25.30;1.00;;;;;;4963805;28;20464;-75
2023/06/06 08:26:57;;;;;;;10.60;4.80;;;25.40;1.00;;;;;;4960825;28;21367;-75
2023/06/06 08:29:25;;;;;;;9.00;5.40;;;25.50;1.00;;;;;;4965826;28;20455;-74
2023/06/06 08:31:53;;;;;;;6.80;5.57;;;25.50;1.00;;;;;;4965216;28;20552;-76
2023/06/06 08:34:20;;;;;;;6.83;5.07;;;25.50;1.00;;;;;;4966052;28;20472;-76
2023/06/06 08:36:48;;;;;;;8.67;5.20;;;25.50;1.00;;;;;;4966507;28;20469;-74
2023/06/06 08:39:15;;;;;;;13.70;5.13;;;25.50;1.00;;;;;;4969486;28;20456;-76
2023/06/06 08:41:49;;;;;;;7.53;4.93;;;25.40;1.00;;;;;;4964934;28;20472;-75
2023/06/06 08:44:16;;;;;;;5.23;4.40;;;25.30;1.00;;;;;;4965009;28;20836;-76
2023/06/06 08:46:48;;;;;;;9.73;5.30;;;25.40;1.00;;;;;;4961137;28;20492;-79
2023/06/06 08:49:18;;;;;;;7.30;5.03;;;25.40;1.00;;;;;;4955368;28;20890;-76
2023/06/06 08:51:46;;;;;;;4.97;4.53;;;25.10;1.00;;;;;;4959259;28;20491;-76
2023/06/06 08:54:14;;;;;;;6.23;4.83;;;25.30;1.00;;;;;;4959118;28;20527;-76
2023/06/06 08:56:45;;;;;;;7.27;5.03;;;25.40;1.00;;;;;;4966233;28;20470;-77
2023/06/06 08:59:14;;;;;;;7.83;5.80;;;25.60;1.00;;;;;;4962968;28;20546;-75
2023/06/06 09:01:41;;;;;;;6.37;4.83;;;25.90;1.00;;;;;;4965981;28;20595;-73
2023/06/06 09:04:09;;;;;;;7.77;5.53;;;26.10;1.00;;;;;;4962436;28;20465;-75
2023/06/06 09:06:40;;;;;;;7.37;5.20;;;26.20;1.00;;;;;;4962778;28;20512;-75
2023/06/06 09:09:09;;;;;;;6.77;5.53;;;26.40;1.00;;;;;;4966810;28;20969;-74
2023/06/06 09:11:36;;;;;;;6.20;4.93;;;26.40;1.00;;;;;;4965686;28;20476;-74
2023/06/06 09:14:04;;;;;;;8.80;5.33;;;26.70;1.00;;;;;;4958808;28;20466;-72
2023/06/06 09:16:32;;;;;;;9.67;5.20;;;26.90;1.00;;;;;;4964477;28;20863;-77
2023/06/06 09:19:01;;;;;;;9.67;5.13;;;26.80;1.00;;;;;;4967377;28;20912;-76
2023/06/06 09:21:33;;;;;;;6.07;5.03;;;26.80;1.00;;;;;;4964468;28;20516;-75
2023/06/06 09:24:00;;;;;;;7.60;4.80;;;27.00;1.00;;;;;;4962449;28;20476;-75
2023/06/06 09:26:28;;;;;;;4.60;4.13;;;27.20;1.00;;;;;;4958215;28;20522;-74
2023/06/06 09:28:55;;;;;;;6.70;4.97;;;27.40;1.00;;;;;;4960155;28;20470;-75
2023/06/06 09:31:29;;;;;;;5.77;4.50;;;27.40;1.00;;;;;;4962610;28;20496;-78
2023/06/06 09:33:58;;;;;;;8.00;5.17;;;27.40;1.00;;;;;;4963781;28;20471;-76
2023/06/06 09:36:27;;;;;;;5.20;4.47;;;27.40;1.00;;;;;;4963448;28;20913;-77
2023/06/06 09:38:56;;;;;;;7.10;4.77;;;27.50;1.00;;;;;;4972104;28;21011;-78
2023/06/06 09:41:23;;;;;;;8.20;4.83;;;27.50;1.00;;;;;;4968887;28;20478;-76
2023/06/06 09:43:50;;;;;;;6.80;5.33;;;27.40;1.00;;;;;;4967751;28;20507;-76
2023/06/06 09:46:18;;;;;;;5.70;5.20;;;27.80;1.00;;;;;;4969233;28;20492;-75
2023/06/06 09:48:58;;;;;;;5.13;4.63;;;28.20;1.00;;;;;;4960257;28;20473;-76
2023/06/06 09:51:26;;;;;;;8.00;5.90;;;28.50;1.00;;;;;;4956345;28;20492;-76
2023/06/06 09:53:54;;;;;;;6.23;4.90;;;28.60;1.00;;;;;;4965924;28;20486;-76
2023/06/06 09:56:24;;;;;;;6.93;4.93;;;28.60;1.00;;;;;;4961727;28;20999;-74
2023/06/06 09:58:56;;;;;;;6.83;4.60;;;28.40;1.00;;;;;;4965806;28;20472;-75
2023/06/06 10:01:28;;;;;;;5.37;4.87;;;28.30;1.00;;;;;;4960519;28;20465;-74
2023/06/06 10:03:57;;;;;;;7.17;4.93;;;28.10;1.00;;;;;;4958792;28;21042;-73
2023/06/06 10:06:25;;;;;;;4.60;4.20;;;28.10;1.00;;;;;;4956613;28;20484;-75
2023/06/06 10:08:53;;;;;;;4.47;4.10;;;28.20;1.00;;;;;;4953516;28;20521;-74
2023/06/06 10:11:24;;;;;;;4.87;4.50;;;28.00;1.00;;;;;;4955942;28;20469;-74
2023/06/06 10:13:54;;;;;;;5.20;4.77;;;27.70;1.00;;;;;;4960106;28;20583;-72
2023/06/06 10:16:21;;;;;;;5.30;4.20;;;27.70;1.00;;;;;;4953552;28;20568;-74
2023/06/06 10:18:50;;;;;;;6.20;4.67;;;27.70;1.00;;;;;;4956667;28;20556;-73
2023/06/06 10:21:17;;;;;;;7.50;4.33;;;27.80;1.00;;;;;;4956835;28;20469;-74
2023/06/06 10:23:44;;;;;;;4.50;4.10;;;27.80;1.00;;;;;;4953406;28;20576;-74
2023/06/06 10:26:17;;;;;;;5.03;4.63;;;27.90;1.00;;;;;;4954725;28;20466;-75
2023/06/06 10:28:53;;;;;;;4.50;4.10;;;28.10;1.00;;;;;;4958961;28;20541;-73
2023/06/06 10:31:37;;;;;;;5.30;4.80;;;28.20;1.00;;;;;;4958004;28;21097;-74
2023/06/06 10:34:07;;;;;;;10.50;4.83;;;28.80;1.00;;;;;;4959351;28;20488;-73
2023/06/06 10:36:43;;;;;;;5.37;4.57;;;29.10;1.00;;;;;;4960982;28;20472;-75
2023/06/06 10:39:17;;;;;;;8.70;5.30;;;29.60;1.00;;;;;;4960258;28;20567;-75
2023/06/06 10:41:53;;;;;;;4.40;4.10;;;29.90;1.00;;;;;;4961491;28;20466;-75
2023/06/06 10:44:26;;;;;;;6.37;4.20;;;30.50;1.00;;;;;;4962331;28;20459;-75
2023/06/06 10:46:53;;;;;;;8.77;4.90;;;30.80;1.00;;;;;;4965729;28;20566;-75
2023/06/06 10:49:20;;;;;;;11.80;6.50;;;31.00;1.00;;;;;;4966123;28;20491;-75
2023/06/06 10:51:48;;;;;;;6.97;4.47;;;31.30;1.00;;;;;;4962102;28;20826;-74
2023/06/06 10:54:21;;;;;;;5.17;4.43;;;30.60;1.00;;;;;;4965643;28;20552;-74
2023/06/06 10:56:52;;;;;;;7.43;5.60;;;30.10;1.00;;;;;;4954800;28;21282;-74
2023/06/06 10:59:28;;;;;;;4.67;4.37;;;29.60;1.00;;;;;;4958109;28;20467;-74
2023/06/06 11:01:56;;;;;;;3.77;3.37;;;29.60;1.00;;;;;;4952232;28;20561;-75
2023/06/06 11:04:24;;;;;;;7.23;4.33;;;29.60;1.00;;;;;;4952276;28;20880;-74
2023/06/06 11:06:52;;;;;;;5.00;4.70;;;29.40;1.00;;;;;;4958635;28;21353;-76
2023/06/06 11:09:22;;;;;;;5.53;4.87;;;29.00;1.00;;;;;;4963230;28;20555;-74
2023/06/06 11:11:49;;;;;;;5.90;5.30;;;28.80;1.00;;;;;;4960653;28;20944;-75
2023/06/06 11:14:25;;;;;;;6.37;4.90;;;28.60;1.00;;;;;;4960515;28;20889;-74
2023/06/06 11:17:01;;;;;;;5.80;5.20;;;28.60;1.00;;;;;;4961393;28;20520;-75
2023/06/06 11:19:34;;;;;;;5.80;4.50;;;28.40;1.00;;;;;;4959234;28;20479;-74
2023/06/06 11:22:03;;;;;;;7.07;5.73;;;28.50;1.00;;;;;;4962474;28;20460;-74
2023/06/06 11:24:36;;;;;;;9.00;5.40;;;28.50;1.00;;;;;;4963681;28;20478;-74
2023/06/06 11:27:07;;;;;;;6.00;5.50;;;28.90;1.00;;;;;;4967442;28;20467;-75
2023/06/06 11:29:37;;;;;;;12.13;6.30;;;28.90;1.00;;;;;;4959573;28;20447;-75
2023/06/06 11:32:09;;;;;;;8.23;5.50;;;28.70;1.00;;;;;;4955150;28;20470;-74
2023/06/06 11:34:38;;;;;;;7.77;5.50;;;28.50;1.00;;;;;;4955813;28;20528;-76
2023/06/06 11:37:06;;;;;;;6.10;5.40;;;28.60;1.00;;;;;;4967551;28;20481;-75
2023/06/06 11:39:33;;;;;;;6.10;5.60;;;28.60;1.00;;;;;;4961857;28;20565;-75
2023/06/06 11:42:01;;;;;;;8.90;8.00;;;28.40;1.00;;;;;;4959515;28;21682;-76
2023/06/06 11:44:37;;;;;;;16.90;11.87;;;28.50;1.00;;;;;;4957815;28;20477;-74
2023/06/06 11:47:08;;;;;;;13.30;10.70;;;28.60;1.00;;;;;;4956454;28;20997;-76
2023/06/06 11:49:46;;;;;;;6.60;6.00;;;28.80;1.00;;;;;;4964786;28;20454;-76
2023/06/06 11:52:14;;;;;;;11.70;5.50;;;29.00;1.00;;;;;;4960734;28;20562;-76
2023/06/06 11:54:52;;;;;;;5.73;5.23;;;29.10;1.00;;;;;;4956505;28;21038;-77
2023/06/06 11:57:20;;;;;;;11.03;5.67;;;29.20;1.00;;;;;;4956776;28;20532;-76
2023/06/06 11:59:55;;;;;;;10.70;5.20;;;29.90;1.00;;;;;;4958403;28;20520;-75
2023/06/06 12:02:22;;;;;;;14.00;7.63;;;30.90;1.00;;;;;;4964141;28;20967;-73
2023/06/06 12:04:49;;;;;;;6.70;6.07;;;32.40;1.00;;;;;;4962817;28;20444;-75
2023/06/06 12:07:16;;;;;;;6.90;5.80;;;33.00;1.00;;;;;;4959486;28;20500;-74
2023/06/06 12:09:43;;;;;;;5.20;4.70;;;32.80;1.00;;;;;;4958013;28;20566;-77
2023/06/06 12:12:12;;;;;;;8.13;5.57;;;32.40;1.00;;;;;;4962500;28;20560;-77
2023/06/06 12:14:39;;;;;;;6.83;5.20;;;31.40;1.00;;;;;;4962542;28;20916;-76
2023/06/06 12:17:09;;;;;;;7.50;6.80;;;31.20;1.00;;;;;;4959733;28;20564;-75
2023/06/06 12:19:37;;;;;;;5.53;5.00;;;31.10;1.00;;;;;;4955246;28;20451;-76
2023/06/06 12:22:05;;;;;;;12.63;8.37;;;31.30;1.00;;;;;;4961983;28;20471;-75
2023/06/06 12:24:33;;;;;;;4.63;4.33;;;32.00;1.00;;;;;;4960976;28;20464;-75
2023/06/06 12:27:02;;;;;;;6.60;4.80;;;32.60;1.00;;;;;;4961790;28;20565;-75
2023/06/06 12:29:33;;;;;;;5.20;4.70;;;32.70;1.00;;;;;;4960989;28;20447;-75
2023/06/06 12:32:19;;;;;;;4.77;4.37;;;33.10;1.00;;;;;;4963268;28;20491;-76
2023/06/06 12:34:48;;;;;;;9.47;8.77;;;33.10;1.00;;;;;;4964461;28;20456;-75
2023/06/06 12:37:15;;;;;;;7.67;6.00;;;32.90;1.00;;;;;;4959674;28;20477;-75
2023/06/06 12:39:43;;;;;;;6.80;6.13;;;32.50;1.00;;;;;;4965968;28;20957;-75
2023/06/06 12:42:16;;;;;;;7.07;6.50;;;32.00;1.00;;;;;;4958713;28;20885;-73
2023/06/06 12:44:44;;;;;;;5.20;4.77;;;31.60;1.00;;;;;;4967093;28;20611;-75
2023/06/06 12:47:14;;;;;;;5.40;4.77;;;31.00;1.00;;;;;;4966303;28;20480;-76
2023/06/06 12:49:43;;;;;;;7.47;5.80;;;30.30;1.00;;;;;;4960906;28;20468;-74
2023/06/06 12:52:11;;;;;;;6.70;5.43;;;29.20;1.00;;;;;;4965361;28;20671;-74
2023/06/06 12:54:41;;;;;;;5.40;4.90;;;29.20;1.00;;;;;;4960093;28;20453;-75
2023/06/06 12:57:10;;;;;;;5.33;4.93;;;29.10;1.00;;;;;;4961222;28;20555;-74
2023/06/06 12:59:41;;;;;;;9.73;6.97;;;28.90;1.00;;;;;;4964629;28;20467;-74
2023/06/06 13:02:08;;;;;;;10.63;5.80;;;28.90;1.00;;;;;;4962172;28;20542;-75